createdAt,value
2022-08-27T00:02:16.293Z,17.95
2022-08-27T00:04:44.449Z,20.52
2022-08-27T00:07:12.942Z,18.80
2022-08-27T00:09:40.512Z,14.82
2022-08-27T00:12:08.579Z,19.17
2022-08-27T00:14:37.701Z,15.75
2022-08-27T00:17:06.433Z,16.52
2022-08-27T00:19:33.773Z,19.33
2022-08-27T00:22:00.920Z,18.85
2022-08-27T00:24:28.558Z,20.92
2022-08-27T00:26:55.843Z,20.80
2022-08-27T00:29:23.018Z,20.25
2022-08-27T00:31:54.235Z,16.98
2022-08-27T00:34:22.911Z,22.60
2022-08-27T00:36:50.705Z,20.00
2022-08-27T00:39:18.051Z,16.25
2022-08-27T00:41:45.301Z,19.35
2022-08-27T00:44:32.067Z,21.13
2022-08-27T00:47:02.747Z,19.90
2022-08-27T00:49:33.080Z,16.48
2022-08-27T00:52:05.898Z,20.60
2022-08-27T00:54:33.301Z,19.35
2022-08-27T00:57:01.260Z,21.73
2022-08-27T00:59:31.122Z,14.85
2022-08-27T01:02:19.033Z,23.33
2022-08-27T01:04:51.580Z,18.77
2022-08-27T01:07:19.298Z,19.50
2022-08-27T01:09:48.456Z,23.17
2022-08-27T01:12:18.008Z,21.60
2022-08-27T01:14:45.760Z,18.30
2022-08-27T01:17:14.934Z,18.42
2022-08-27T01:19:50.460Z,17.77
2022-08-27T01:22:42.540Z,18.95
2022-08-27T01:25:14.856Z,24.88
2022-08-27T01:28:03.573Z,24.52
2022-08-27T01:30:42.163Z,27.73
2022-08-27T01:33:19.101Z,34.55
2022-08-27T01:35:49.469Z,33.35
2022-08-27T01:38:31.301Z,33.35
2022-08-27T01:41:01.161Z,33.05
2022-08-27T01:43:29.447Z,29.42
2022-08-27T01:45:57.112Z,38.00
2022-08-27T01:48:51.458Z,36.03
2022-08-27T01:51:31.659Z,40.08
2022-08-27T01:53:59.112Z,44.78
2022-08-27T01:56:40.058Z,47.30
2022-08-27T01:59:25.394Z,46.13
2022-08-27T02:02:25.322Z,44.38
2022-08-27T02:05:18.634Z,34.33
2022-08-27T02:08:00.191Z,47.15
2022-08-27T02:10:41.501Z,43.55
2022-08-27T02:13:25.038Z,57.72
2022-08-27T02:16:03.001Z,36.70
2022-08-27T02:18:44.404Z,41.88
2022-08-27T02:21:40.449Z,30.73
2022-08-27T02:25:12.521Z,49.58
2022-08-27T02:27:49.775Z,54.72
2022-08-27T02:30:24.204Z,36.22
2022-08-27T02:33:12.179Z,48.10
2022-08-27T02:35:52.175Z,47.92
2022-08-27T02:39:09.736Z,36.47
2022-08-27T02:44:55.196Z,34.72
2022-08-27T02:47:49.923Z,48.25
2022-08-27T02:50:36.887Z,39.47
2022-08-27T02:53:06.340Z,57.17
2022-08-27T02:55:51.067Z,53.53
2022-08-27T02:58:56.356Z,45.97
2022-08-27T03:02:27.661Z,74.47
2022-08-27T03:09:06.298Z,55.60
2022-08-27T03:12:13.368Z,43.63
2022-08-27T03:15:08.067Z,46.35
2022-08-27T03:18:25.723Z,51.78
2022-08-27T03:24:28.005Z,46.83
2022-08-27T03:34:24.089Z,77.93
2022-08-27T03:37:08.171Z,37.63
2022-08-27T03:39:41.660Z,50.07
2022-08-27T03:42:17.509Z,40.88
2022-08-27T03:48:06.684Z,57.70
2022-08-27T03:51:55.231Z,44.10
2022-08-27T03:54:34.943Z,31.65
2022-08-27T04:20:24.961Z,32.80
2022-08-27T04:22:49.499Z,49.70
2022-08-27T04:25:16.833Z,36.60
2022-08-27T04:27:45.490Z,42.45
2022-08-27T04:30:15.856Z,23.90
2022-08-27T04:32:43.111Z,42.03
2022-08-27T04:35:11.880Z,31.20
2022-08-27T04:37:40.267Z,25.20
2022-08-27T04:40:08.464Z,40.47
2022-08-27T04:42:36.008Z,41.43
2022-08-27T04:45:04.514Z,37.47
2022-08-27T04:47:31.852Z,37.42
2022-08-27T04:50:00.367Z,36.07
2022-08-27T04:52:29.080Z,32.30
2022-08-27T04:54:56.465Z,34.40
2022-08-27T04:57:25.790Z,41.38
2022-08-27T04:59:53.092Z,35.80
2022-08-27T05:02:38.998Z,35.13
2022-08-27T05:05:07.033Z,81.93
2022-08-27T05:07:34.431Z,33.90
2022-08-27T05:10:01.702Z,43.23
2022-08-27T05:12:28.969Z,34.60
2022-08-27T05:14:56.333Z,33.77
2022-08-27T05:17:23.751Z,43.83
2022-08-27T05:19:56.777Z,24.27
2022-08-27T05:22:24.216Z,39.88
2022-08-27T05:24:51.494Z,39.60
2022-08-27T05:27:18.828Z,43.80
2022-08-27T05:29:46.258Z,32.15
2022-08-27T05:32:21.857Z,32.43
2022-08-27T05:34:49.230Z,36.97
2022-08-27T05:37:16.675Z,62.00
2022-08-27T05:39:44.005Z,52.67
2022-08-27T05:42:11.632Z,25.90
2022-08-27T05:44:41.426Z,39.33
2022-08-27T05:47:09.495Z,28.23
2022-08-27T05:49:37.764Z,48.43
2022-08-27T05:52:09.015Z,35.37
2022-08-27T05:54:36.475Z,23.07
2022-08-27T05:57:03.940Z,26.30
2022-08-27T05:59:52.987Z,32.27
2022-08-27T06:02:28.590Z,24.33
2022-08-27T06:04:56.310Z,30.10
2022-08-27T06:07:23.703Z,29.27
2022-08-27T06:09:51.074Z,29.37
2022-08-27T06:12:18.340Z,19.57
2022-08-27T06:14:45.700Z,32.05
2022-08-27T06:17:13.067Z,22.07
2022-08-27T06:19:59.062Z,29.33
2022-08-27T06:22:45.216Z,34.83
2022-08-27T06:25:12.508Z,21.30
2022-08-27T06:27:40.168Z,22.85
2022-08-27T06:30:08.122Z,25.98
2022-08-27T06:32:35.474Z,24.97
2022-08-27T06:35:02.729Z,21.67
2022-08-27T06:37:33.903Z,18.02
2022-08-27T06:40:01.111Z,16.65
2022-08-27T06:42:28.462Z,18.77
2022-08-27T06:44:55.663Z,21.75
2022-08-27T06:47:22.929Z,14.88
2022-08-27T06:49:57.858Z,16.00
2022-08-27T06:52:28.339Z,15.80
2022-08-27T06:54:55.642Z,12.20
2022-08-27T06:57:24.268Z,13.98
2022-08-27T06:59:51.884Z,13.43
2022-08-27T07:02:19.194Z,9.77
2022-08-27T07:04:46.815Z,10.32
2022-08-27T07:07:14.729Z,12.35
2022-08-27T07:09:59.065Z,11.05
2022-08-27T07:12:30.406Z,13.18
2022-08-27T07:14:58.088Z,11.27
2022-08-27T07:17:26.740Z,10.80
2022-08-27T07:20:07.663Z,10.90
2022-08-27T07:22:40.632Z,10.23
2022-08-27T07:25:12.652Z,15.47
2022-08-27T07:27:40.012Z,19.40
2022-08-27T07:30:09.511Z,18.15
2022-08-27T07:32:36.786Z,16.03
2022-08-27T07:35:04.622Z,17.77
2022-08-27T07:37:35.059Z,17.07
2022-08-27T07:40:05.786Z,15.93
2022-08-27T07:42:51.520Z,15.03
2022-08-27T07:45:18.736Z,14.18
2022-08-27T07:47:46.967Z,20.02
2022-08-27T07:50:15.184Z,11.70
2022-08-27T07:52:44.174Z,14.90
2022-08-27T07:55:12.691Z,13.20
2022-08-27T07:57:40.675Z,15.95
2022-08-27T08:00:13.109Z,19.13
2022-08-27T08:02:42.379Z,16.83
2022-08-27T08:05:24.151Z,9.70
2022-08-27T08:07:52.127Z,14.83
2022-08-27T08:10:23.493Z,11.65
2022-08-27T08:12:53.540Z,11.98
2022-08-27T08:15:20.945Z,14.15
2022-08-27T08:17:48.318Z,15.07
2022-08-27T08:20:56.560Z,16.80
2022-08-27T08:23:21.341Z,11.55
2022-08-27T08:26:01.430Z,13.98
2022-08-27T08:28:30.269Z,14.45
2022-08-27T08:30:58.591Z,16.27
2022-08-27T08:33:27.676Z,16.02
2022-08-27T08:35:55.003Z,16.55
2022-08-27T08:38:26.154Z,14.57
2022-08-27T08:40:54.718Z,14.40
2022-08-27T08:43:35.829Z,13.50
2022-08-27T08:46:26.740Z,15.90
2022-08-27T08:49:01.320Z,17.60
2022-08-27T08:51:40.689Z,15.25
2022-08-27T08:54:18.232Z,13.95
2022-08-27T08:56:59.579Z,15.15
2022-08-27T08:59:40.072Z,16.30
2022-08-27T09:02:13.573Z,16.60
2022-08-27T09:04:43.349Z,16.80
2022-08-27T09:07:26.352Z,13.73
2022-08-27T09:10:28.774Z,17.02
2022-08-27T09:13:01.515Z,16.85
2022-08-27T09:15:36.458Z,14.57
2022-08-27T09:18:14.332Z,17.20
2022-08-27T09:20:46.875Z,16.70
2022-08-27T09:23:24.294Z,14.52
2022-08-27T09:26:02.697Z,14.60
2022-08-27T09:28:48.926Z,15.85
2022-08-27T09:31:20.873Z,15.23
2022-08-27T09:33:56.703Z,16.27
2022-08-27T09:36:25.450Z,16.35
2022-08-27T09:38:59.017Z,17.60
2022-08-27T09:41:35.456Z,15.43
2022-08-27T09:44:13.883Z,13.70
2022-08-27T09:46:55.765Z,16.38
2022-08-27T09:49:24.248Z,18.15
2022-08-27T09:51:52.938Z,17.70
2022-08-27T09:54:42.535Z,16.25
2022-08-27T09:57:13.206Z,15.57
2022-08-27T09:59:51.081Z,13.75
2022-08-27T10:02:23.618Z,11.10
2022-08-27T10:04:57.180Z,14.98
2022-08-27T10:07:53.849Z,14.10
2022-08-27T10:10:57.581Z,17.58
2022-08-27T10:13:31.458Z,14.77
2022-08-27T10:16:26.521Z,13.00
2022-08-27T10:19:25.482Z,14.85
2022-08-27T10:22:17.675Z,12.48
2022-08-27T10:25:22.500Z,15.27
2022-08-27T10:28:20.030Z,17.30
2022-08-27T10:31:08.983Z,17.30
2022-08-27T10:33:41.414Z,15.43
2022-08-27T10:36:26.808Z,19.98
2022-08-27T10:39:03.106Z,15.75
2022-08-27T10:41:34.411Z,14.88
2022-08-27T10:44:45.491Z,15.88
2022-08-27T10:47:46.599Z,14.98
2022-08-27T10:50:17.879Z,21.77
2022-08-27T10:52:52.148Z,26.85
2022-08-27T10:55:40.265Z,15.82
2022-08-27T10:58:39.583Z,15.63
2022-08-27T11:01:20.068Z,17.58
2022-08-27T11:03:54.927Z,14.80
2022-08-27T11:06:26.085Z,15.63
2022-08-27T11:09:07.676Z,13.98
2022-08-27T11:15:03.659Z,15.73
2022-08-27T11:17:45.831Z,12.95
2022-08-27T11:20:37.931Z,11.80
2022-08-27T11:23:21.733Z,13.57
2022-08-27T11:25:55.789Z,14.43
2022-08-27T11:28:46.057Z,17.02
2022-08-27T11:31:47.319Z,17.63
2022-08-27T11:34:29.469Z,14.68
2022-08-27T11:37:18.291Z,40.20
2022-08-27T11:40:18.299Z,14.55
2022-08-27T11:42:51.776Z,14.75
2022-08-27T11:45:24.694Z,17.67
2022-08-27T11:47:55.884Z,17.27
2022-08-27T11:50:52.454Z,13.23
2022-08-27T11:53:28.656Z,15.88
2022-08-27T11:56:41.664Z,14.90
2022-08-27T11:59:32.741Z,16.08
2022-08-27T12:02:26.848Z,15.27
2022-08-27T12:05:07.226Z,13.63
2022-08-27T12:07:37.472Z,16.55
2022-08-27T12:10:17.180Z,14.88
2022-08-27T12:13:17.066Z,16.83
2022-08-27T12:15:49.738Z,16.17
2022-08-27T12:18:50.288Z,15.18
2022-08-27T12:21:28.941Z,14.88
2022-08-27T12:24:31.019Z,14.38
2022-08-27T12:27:02.800Z,16.10
2022-08-27T12:29:50.468Z,21.85
2022-08-27T12:32:29.531Z,13.38
2022-08-27T12:35:00.287Z,16.50
2022-08-27T12:37:31.225Z,15.13
2022-08-27T12:40:02.258Z,16.65
2022-08-27T12:42:29.530Z,18.02
2022-08-27T12:44:59.789Z,13.73
2022-08-27T12:47:27.580Z,15.23
2022-08-27T12:50:02.154Z,13.63
2022-08-27T12:53:02.573Z,16.80
2022-08-27T12:55:57.482Z,13.55
2022-08-27T12:58:46.719Z,20.48
2022-08-27T13:01:37.024Z,11.35
2022-08-27T13:04:22.470Z,19.00
2022-08-27T13:06:50.371Z,9.02
2022-08-27T13:09:32.862Z,14.10
2022-08-27T13:12:02.289Z,12.20
2022-08-27T13:14:38.495Z,17.27
2022-08-27T13:17:20.031Z,13.20
2022-08-27T13:19:50.903Z,11.80
2022-08-27T13:22:27.289Z,21.25
2022-08-27T13:24:56.450Z,10.00
2022-08-27T13:27:29.199Z,18.48
2022-08-27T13:30:02.950Z,19.23
2022-08-27T13:32:30.907Z,12.50
2022-08-27T13:35:00.783Z,17.95
2022-08-27T13:37:34.879Z,10.18
2022-08-27T13:40:02.371Z,17.58
2022-08-27T13:42:31.690Z,14.13
2022-08-27T13:45:05.225Z,14.90
2022-08-27T13:47:43.184Z,11.85
2022-08-27T13:50:30.781Z,14.73
2022-08-27T13:53:27.809Z,9.50
2022-08-27T13:55:56.646Z,14.02
2022-08-27T13:58:27.471Z,24.98
2022-08-27T14:00:55.439Z,15.70
2022-08-27T14:03:30.481Z,19.20
2022-08-27T14:05:58.381Z,13.10
2022-08-27T14:08:32.450Z,15.15
2022-08-27T14:11:07.076Z,11.88
2022-08-27T14:13:53.826Z,15.82
2022-08-27T14:16:31.227Z,14.25
2022-08-27T14:19:24.978Z,11.20
2022-08-27T14:21:52.711Z,14.80
2022-08-27T14:24:20.024Z,13.55
2022-08-27T14:26:52.930Z,14.75
2022-08-27T14:29:20.567Z,12.00
2022-08-27T14:31:49.077Z,13.95
2022-08-27T14:34:16.631Z,13.57
2022-08-27T14:36:44.340Z,10.55
2022-08-27T14:39:12.334Z,27.20
2022-08-27T14:41:39.972Z,17.70
2022-08-27T14:44:14.389Z,9.02
2022-08-27T14:46:43.018Z,19.42
2022-08-27T14:49:20.864Z,11.02
2022-08-27T14:51:49.153Z,14.65
2022-08-27T14:54:16.376Z,11.05
2022-08-27T14:56:43.737Z,15.20
2022-08-27T14:59:11.005Z,11.38
2022-08-27T15:01:38.565Z,11.63
2022-08-27T15:04:06.792Z,20.10
2022-08-27T15:06:34.049Z,15.55
2022-08-27T15:09:01.784Z,14.57
2022-08-27T15:11:33.214Z,11.85
2022-08-27T15:14:06.657Z,9.77
2022-08-27T15:16:38.691Z,12.85
2022-08-27T15:19:08.962Z,15.98
2022-08-27T15:21:38.696Z,13.48
2022-08-27T15:24:15.425Z,26.15
2022-08-27T15:27:01.001Z,11.60
2022-08-27T15:29:28.260Z,18.10
2022-08-27T15:32:32.990Z,15.38
2022-08-27T15:35:13.901Z,11.07
2022-08-27T15:37:42.988Z,18.73
2022-08-27T15:40:12.387Z,13.18
2022-08-27T15:42:40.724Z,18.92
2022-08-27T15:45:09.503Z,13.80
2022-08-27T15:47:37.228Z,17.08
2022-08-27T15:50:12.874Z,16.83
2022-08-27T15:52:41.653Z,17.27
2022-08-27T15:55:21.750Z,14.43
2022-08-27T15:57:49.378Z,12.70
2022-08-27T16:00:17.756Z,14.95
2022-08-27T16:02:49.373Z,13.60
2022-08-27T16:05:17.189Z,12.10
2022-08-27T16:07:50.788Z,13.73
2022-08-27T16:10:18.767Z,11.88
2022-08-27T16:12:46.487Z,13.90
2022-08-27T16:15:13.923Z,14.80
2022-08-27T16:17:42.519Z,13.95
2022-08-27T16:20:28.745Z,11.65
2022-08-27T16:22:56.168Z,12.10
2022-08-27T16:25:23.670Z,16.45
2022-08-27T16:27:51.668Z,12.63
2022-08-27T16:30:19.746Z,12.95
2022-08-27T16:32:50.967Z,15.02
2022-08-27T16:35:18.977Z,14.30
2022-08-27T16:37:46.324Z,16.88
2022-08-27T16:40:15.092Z,14.57
2022-08-27T16:42:46.539Z,10.90
2022-08-27T16:45:14.901Z,11.48
2022-08-27T16:48:01.231Z,13.25
2022-08-27T16:50:49.670Z,15.43
2022-08-27T16:53:19.076Z,10.32
2022-08-27T16:55:55.129Z,15.00
2022-08-27T16:58:28.516Z,13.77
2022-08-27T17:00:59.468Z,14.02
2022-08-27T17:03:27.246Z,8.73
2022-08-27T17:05:57.657Z,11.75
2022-08-27T17:08:26.850Z,12.98
2022-08-27T17:10:56.480Z,11.35
2022-08-27T17:13:28.290Z,27.38
2022-08-27T17:15:57.109Z,10.23
2022-08-27T17:18:27.756Z,12.20
2022-08-27T17:20:57.106Z,9.82
2022-08-27T17:23:30.761Z,13.15
2022-08-27T17:25:58.112Z,8.80
2022-08-27T17:28:25.438Z,11.02
2022-08-27T17:30:52.992Z,11.05
2022-08-27T17:33:30.811Z,12.27
2022-08-27T17:35:59.500Z,11.30
2022-08-27T17:38:38.989Z,6.50
2022-08-27T17:41:16.650Z,9.48
2022-08-27T17:43:44.112Z,11.82
2022-08-27T17:46:13.730Z,6.53
2022-08-27T17:48:41.336Z,6.97
2022-08-27T17:51:12.382Z,8.43
2022-08-27T17:53:59.927Z,8.50
2022-08-27T17:56:29.766Z,7.85
2022-08-27T17:58:57.087Z,12.88
2022-08-27T18:01:31.628Z,8.55
2022-08-27T18:03:59.874Z,8.52
2022-08-27T18:06:28.585Z,9.02
2022-08-27T18:08:55.948Z,7.88
2022-08-27T18:11:24.171Z,10.00
2022-08-27T18:13:55.273Z,8.13
2022-08-27T18:16:22.862Z,12.40
2022-08-27T18:18:50.406Z,9.20
2022-08-27T18:21:25.040Z,8.80
2022-08-27T18:23:54.025Z,10.25
2022-08-27T18:26:39.588Z,6.93
2022-08-27T18:29:06.748Z,7.88
2022-08-27T18:31:34.206Z,11.90
2022-08-27T18:34:02.413Z,9.43
2022-08-27T18:36:30.042Z,12.95
2022-08-27T18:38:57.635Z,12.85
2022-08-27T18:41:26.443Z,9.52
2022-08-27T18:43:56.088Z,13.90
2022-08-27T18:46:23.413Z,10.48
2022-08-27T18:48:50.689Z,15.15
2022-08-27T18:51:19.774Z,11.20
2022-08-27T18:53:48.790Z,8.27
2022-08-27T18:56:19.073Z,8.88
2022-08-27T18:58:47.639Z,9.73
2022-08-27T19:01:19.583Z,8.27
2022-08-27T19:03:50.199Z,10.35
2022-08-27T19:06:20.512Z,8.77
2022-08-27T19:08:49.113Z,7.72
2022-08-27T19:11:16.695Z,10.15
2022-08-27T19:13:51.073Z,5.97
2022-08-27T19:16:47.525Z,8.20
2022-08-27T19:19:16.716Z,6.53
2022-08-27T19:21:47.999Z,6.50
2022-08-27T19:24:19.303Z,7.05
2022-08-27T19:26:46.880Z,11.50
2022-08-27T19:29:14.235Z,7.43
2022-08-27T19:31:41.459Z,10.02
2022-08-27T19:34:09.374Z,10.57
2022-08-27T19:36:42.031Z,7.82
2022-08-27T19:39:12.040Z,7.07
2022-08-27T19:41:39.361Z,11.30
2022-08-27T19:44:06.699Z,8.40
2022-08-27T19:46:35.429Z,7.50
2022-08-27T19:49:02.863Z,9.00
2022-08-27T19:51:30.119Z,12.75
2022-08-27T19:53:57.262Z,10.00
2022-08-27T19:56:32.644Z,7.88
2022-08-27T19:59:07.678Z,8.82
2022-08-27T20:01:43.612Z,10.15
2022-08-27T20:04:10.887Z,9.30
2022-08-27T20:06:38.564Z,8.88
2022-08-27T20:09:07.847Z,10.10
2022-08-27T20:11:35.036Z,7.68
2022-08-27T20:14:02.368Z,14.32
2022-08-27T20:16:29.496Z,9.70
2022-08-27T20:19:00.225Z,7.05
2022-08-27T20:21:28.881Z,11.18
2022-08-27T20:23:56.095Z,5.85
2022-08-27T20:26:24.920Z,4.85
2022-08-27T20:28:53.052Z,8.23
2022-08-27T20:31:20.242Z,6.72
2022-08-27T20:33:47.581Z,6.15
2022-08-27T20:36:14.911Z,8.05
2022-08-27T20:38:42.438Z,6.18
2022-08-27T20:41:09.625Z,7.32
2022-08-27T20:43:36.875Z,5.55
2022-08-27T20:46:04.383Z,5.55
2022-08-27T20:48:31.960Z,8.82
2022-08-27T20:50:59.160Z,5.80
2022-08-27T20:53:26.954Z,5.95
2022-08-27T20:55:56.731Z,7.28
2022-08-27T20:58:43.589Z,6.57
2022-08-27T21:01:11.149Z,5.72
2022-08-27T21:03:38.457Z,5.00
2022-08-27T21:06:06.198Z,5.15
2022-08-27T21:08:33.390Z,13.93
2022-08-27T21:11:00.662Z,9.13
2022-08-27T21:13:29.375Z,5.65
2022-08-27T21:15:56.896Z,10.27
2022-08-27T21:18:29.388Z,9.25
2022-08-27T21:21:04.630Z,5.85
2022-08-27T21:23:33.765Z,10.70
2022-08-27T21:26:03.446Z,8.03
2022-08-27T21:28:31.100Z,6.67
2022-08-27T21:30:58.201Z,6.60
2022-08-27T21:33:25.403Z,5.25
2022-08-27T21:35:52.850Z,8.37
2022-08-27T21:38:21.080Z,5.50
2022-08-27T21:40:51.077Z,9.85
2022-08-27T21:43:21.183Z,9.03
2022-08-27T21:45:54.558Z,3.70
2022-08-27T21:48:23.039Z,7.60
2022-08-27T21:50:54.497Z,7.70
2022-08-27T21:53:25.720Z,6.77
2022-08-27T21:55:58.977Z,7.40
2022-08-27T21:58:26.993Z,7.13
2022-08-27T22:00:55.084Z,8.97
2022-08-27T22:03:24.754Z,8.10
2022-08-27T22:05:52.667Z,8.53
2022-08-27T22:08:30.080Z,7.80
2022-08-27T22:11:04.526Z,8.00
2022-08-27T22:13:33.992Z,11.03
2022-08-27T22:16:05.255Z,7.67
2022-08-27T22:18:35.671Z,9.67
2022-08-27T22:21:07.027Z,6.50
2022-08-27T22:23:37.830Z,9.23
2022-08-27T22:26:19.566Z,6.67
2022-08-27T22:28:47.860Z,9.80
2022-08-27T22:31:42.042Z,9.77
2022-08-27T22:34:13.284Z,5.47
2022-08-27T22:36:45.779Z,8.83
2022-08-27T22:39:18.896Z,5.60
2022-08-27T22:41:49.921Z,7.90
2022-08-27T22:44:20.675Z,7.07
2022-08-27T22:46:49.012Z,10.03
2022-08-27T22:49:16.748Z,6.00
2022-08-27T22:51:44.731Z,6.20
2022-08-27T22:54:14.658Z,12.83
2022-08-27T22:56:42.782Z,10.07
2022-08-27T22:59:10.976Z,8.77
2022-08-27T23:01:39.098Z,9.23
2022-08-27T23:04:07.159Z,5.07
2022-08-27T23:06:35.101Z,8.67
2022-08-27T23:09:03.083Z,9.57
2022-08-27T23:11:32.131Z,6.43
2022-08-27T23:14:00.913Z,7.60
2022-08-27T23:16:34.085Z,6.27
2022-08-27T23:19:04.879Z,9.63
2022-08-27T23:21:33.078Z,7.87
2022-08-27T23:24:01.016Z,9.37
2022-08-27T23:26:56.081Z,9.10
2022-08-27T23:29:24.154Z,7.47
2022-08-27T23:31:52.904Z,7.83
2022-08-27T23:34:24.228Z,9.07
2022-08-27T23:36:58.749Z,10.50
2022-08-27T23:39:29.849Z,7.50
2022-08-27T23:42:02.817Z,7.63
2022-08-27T23:44:32.067Z,8.50
2022-08-27T23:47:04.682Z,8.80
2022-08-27T23:49:32.569Z,9.83
2022-08-27T23:52:01.685Z,8.43
2022-08-27T23:54:29.374Z,4.60
2022-08-27T23:57:00.517Z,6.50
2022-08-27T23:59:30.475Z,6.53
